Time;durP1;ratioP1;P1;durP2;ratioP2;P2;SDS_P1;SDS_P2;PMS_P1;PMS_P2;Temp;Humidity;BMP_temperature;BMP_pressure;BME280_temperature;BME280_humidity;BME280_pressure;Samples;Min_cycle;Max_cycle;Signal;HPM_P1;HPM_P2
2023/07/01 00:01:31;;;;;;;9.77;3.60;;;;;;;17.56;52.26;100637.91;5059015;28;20384;-50
2023/07/01 00:03:56;;;;;;;10.77;3.60;;;;;;;17.59;52.58;100637.03;5059339;28;20027;-50
2023/07/01 00:06:22;;;;;;;9.45;2.92;;;;;;;17.55;52.71;100636.16;5058337;28;20017;-46
2023/07/01 00:08:47;;;;;;;11.75;3.45;;;;;;;17.54;52.79;100628.34;5058989;28;20028;-50
2023/07/01 00:11:13;;;;;;;10.98;3.13;;;;;;;17.55;52.99;100622.28;5058996;28;20025;-49
2023/07/01 00:13:38;;;;;;;12.25;4.18;;;;;;;17.53;53.03;100616.19;5058001;28;20021;-49
2023/07/01 00:16:04;;;;;;;12.02;3.17;;;;;;;17.53;53.52;100614.47;5059299;28;20060;-49
2023/07/01 00:18:30;;;;;;;10.18;3.30;;;;;;;17.54;53.78;100617.94;5058109;28;20039;-49
2023/07/01 00:20:55;;;;;;;11.75;3.20;;;;;;;17.53;53.53;100611.88;5059146;28;20358;-49
2023/07/01 00:23:21;;;;;;;7.82;3.13;;;;;;;17.51;53.94;100603.16;5058932;28;20083;-48
2023/07/01 00:25:46;;;;;;;9.70;3.30;;;;;;;17.52;54.38;100604.91;5058041;28;20060;-49
2023/07/01 00:28:12;;;;;;;10.10;3.10;;;;;;;17.51;54.39;100603.16;5058970;28;20045;-48
2023/07/01 00:30:38;;;;;;;10.07;3.22;;;;;;;17.50;54.58;100600.56;5058798;28;20128;-49
2023/07/01 00:33:05;;;;;;;11.30;3.28;;;;;;;17.52;55.16;100593.59;5058387;28;20099;-49
2023/07/01 00:35:31;;;;;;;11.32;3.70;;;;;;;17.50;55.02;100595.38;5058557;28;20024;-48
2023/07/01 00:37:56;;;;;;;12.80;3.40;;;;;;;17.50;55.42;100592.75;5058944;28;20023;-47
2023/07/01 00:40:21;;;;;;;9.88;3.08;;;;;;;17.51;55.74;100581.47;5058235;28;20067;-50
2023/07/01 00:42:47;;;;;;;10.68;3.08;;;;;;;17.51;55.62;100577.13;5058594;28;20025;-49
2023/07/01 00:45:13;;;;;;;13.43;3.55;;;;;;;17.49;56.09;100585.81;5058970;28;20104;-49
2023/07/01 00:47:39;;;;;;;9.98;3.63;;;;;;;17.50;56.18;100577.13;5057934;28;20024;-49
2023/07/01 00:50:09;;;;;;;9.48;3.58;;;;;;;17.49;56.17;100570.19;5058830;28;20100;-49
2023/07/01 00:52:35;;;;;;;13.55;3.30;;;;;;;17.51;56.24;100565.84;5058488;28;20029;-49
2023/07/01 00:55:00;;;;;;;10.23;3.28;;;;;;;17.49;56.78;100563.22;5057935;28;20066;-49
2023/07/01 00:57:26;;;;;;;9.88;3.42;;;;;;;17.47;57.08;100564.09;5053968;28;20037;-47
2023/07/01 00:59:51;;;;;;;10.60;3.40;;;;;;;17.47;57.37;100558.88;5055672;28;20031;-49
2023/07/01 01:02:22;;;;;;;6.15;3.13;;;;;;;17.47;57.79;100569.31;5054914;28;20385;-50
2023/07/01 01:05:01;;;;;;;10.02;3.22;;;;;;;17.44;58.02;100563.25;5055327;28;20028;-48
2023/07/01 01:07:33;;;;;;;10.98;3.80;;;;;;;17.42;59.65;100561.53;5055069;28;20104;-49
2023/07/01 01:10:07;;;;;;;10.82;3.22;;;;;;;17.38;59.79;100555.44;5054687;28;20448;-48
2023/07/01 01:12:33;;;;;;;9.88;3.85;;;;;;;17.35;60.72;100555.47;5055161;28;20086;-47
2023/07/01 01:15:00;;;;;;;11.02;3.60;;;;;;;17.36;61.10;100546.75;5054654;28;20024;-47
2023/07/01 01:17:30;;;;;;;10.52;3.63;;;;;;;17.34;61.15;100553.72;5055012;28;20093;-45
2023/07/01 01:19:59;;;;;;;11.60;4.07;;;;;;;17.34;61.42;100542.41;5055245;28;20052;-46
2023/07/01 01:22:38;;;;;;;12.00;3.92;;;;;;;17.34;61.52;100543.31;5053815;28;20052;-50
2023/07/01 01:25:08;;;;;;;8.77;3.65;;;;;;;17.33;62.21;100538.09;5055259;28;20033;-49
2023/07/01 01:27:39;;;;;;;11.10;3.50;;;;;;;17.32;63.12;100532.00;5054821;28;20056;-48
2023/07/01 01:30:06;;;;;;;10.98;3.30;;;;;;;17.33;63.39;100533.75;5054232;28;20025;-49
2023/07/01 01:32:33;;;;;;;9.13;3.67;;;;;;;17.32;63.77;100534.63;5054747;28;20032;-48
2023/07/01 01:34:59;;;;;;;8.18;3.40;;;;;;;17.32;63.65;100533.78;5055015;28;20096;-46
2023/07/01 01:37:33;;;;;;;11.82;3.75;;;;;;;17.29;63.88;100519.00;5053980;28;20078;-49
2023/07/01 01:40:09;;;;;;;14.52;3.47;;;;;;;17.27;64.06;100531.16;5054809;28;20021;-49
2023/07/01 01:42:37;;;;;;;13.27;4.60;;;;;;;17.27;64.24;100520.75;5054482;28;20052;-48
2023/07/01 01:45:03;;;;;;;;;;;;;;;17.35;63.01;100524.22;5054392;28;20033;-48
2023/07/01 01:47:30;;;;;;;12.43;3.65;;;;;;;17.28;64.60;100519.88;5054255;28;19923;-48
2023/07/01 01:50:00;;;;;;;10.95;3.80;;;;;;;17.26;64.97;100514.69;5054060;28;20028;-48
2023/07/01 01:52:26;;;;;;;9.13;3.78;;;;;;;17.26;65.21;100508.59;5054403;28;20071;-48
2023/07/01 01:54:54;;;;;;;11.45;4.00;;;;;;;17.24;65.83;100505.16;5054701;28;20021;-49
2023/07/01 01:57:20;;;;;;;9.93;4.55;;;;;;;17.21;66.57;100505.13;5053763;28;20021;-46
2023/07/01 01:59:46;;;;;;;11.30;3.72;;;;;;;17.18;67.79;100499.94;5054020;28;20036;-49
2023/07/01 02:02:12;;;;;;;10.35;4.30;;;;;;;17.14;68.86;100493.03;5054634;28;20373;-50
2023/07/01 02:04:37;;;;;;;13.25;3.92;;;;;;;17.13;69.43;100492.13;5053469;28;20047;-50
2023/07/01 02:07:03;;;;;;;11.90;4.03;;;;;;;17.09;69.85;100491.31;5054079;28;20366;-50
2023/07/01 02:09:28;;;;;;;13.93;4.40;;;;;;;17.07;70.70;100492.19;5053924;28;20051;-49
2023/07/01 02:11:54;;;;;;;12.85;3.65;;;;;;;17.05;71.19;100494.75;5053460;28;20021;-46
2023/07/01 02:14:20;;;;;;;15.43;4.05;;;;;;;17.01;72.25;100490.44;5054125;28;20063;-49
2023/07/01 02:16:45;;;;;;;7.93;4.18;;;;;;;16.96;73.11;100486.97;5053697;28;20052;-48
2023/07/01 02:19:10;;;;;;;11.65;4.18;;;;;;;16.93;73.65;100481.78;5053186;28;20025;-49
2023/07/01 02:21:36;;;;;;;17.92;4.68;;;;;;;16.92;74.17;100475.72;5053738;28;20044;-50
2023/07/01 02:24:01;;;;;;;12.93;4.30;;;;;;;16.89;74.42;100473.09;5053921;28;20036;-49
2023/07/01 02:26:26;;;;;;;12.93;4.03;;;;;;;16.77;77.10;100463.59;5052795;28;20469;-50
2023/07/01 02:28:52;;;;;;;11.45;4.47;;;;;;;16.71;77.98;100471.38;5053851;28;20028;-49
2023/07/01 02:31:18;;;;;;;15.45;4.50;;;;;;;16.69;78.48;100467.91;5054009;28;20032;-49
2023/07/01 02:33:49;;;;;;;11.13;4.38;;;;;;;16.62;80.25;100463.59;5052992;28;20062;-48
2023/07/01 02:36:15;;;;;;;9.55;4.47;;;;;;;16.56;83.08;100463.59;5053928;28;20043;-49
2023/07/01 02:38:40;;;;;;;15.43;4.43;;;;;;;16.48;84.25;100449.75;5053179;28;20392;-48
2023/07/01 02:41:06;;;;;;;9.25;4.60;;;;;;;16.40;85.91;100447.16;5053137;28;20029;-48
2023/07/01 02:43:31;;;;;;;14.82;4.53;;;;;;;16.34;86.91;100448.00;5053104;28;20397;-49
2023/07/01 02:45:56;;;;;;;9.35;4.45;;;;;;;16.30;86.99;100443.69;5053531;28;20071;-48
2023/07/01 02:48:22;;;;;;;14.25;5.03;;;;;;;16.28;87.56;100455.81;5052924;28;20020;-48
2023/07/01 02:50:47;;;;;;;11.13;4.50;;;;;;;16.27;88.57;100446.31;5053202;28;20071;-49
2023/07/01 02:53:12;;;;;;;12.48;4.38;;;;;;;16.24;89.91;100449.78;5052845;28;20031;-49
2023/07/01 02:55:38;;;;;;;12.15;4.70;;;;;;;16.22;91.34;100448.88;5053109;28;20013;-48
2023/07/01 02:58:03;;;;;;;14.50;4.70;;;;;;;16.19;92.34;100441.09;5053285;28;20051;-48
2023/07/01 03:00:29;;;;;;;10.73;4.55;;;;;;;16.17;93.78;100445.44;5052153;28;20801;-50
2023/07/01 03:02:54;;;;;;;10.30;3.90;;;;;;;16.10;95.80;100443.69;5053357;28;20063;-49
2023/07/01 03:05:21;;;;;;;10.55;4.18;;;;;;;16.08;96.92;100442.84;5053406;28;20029;-48
2023/07/01 03:07:47;;;;;;;8.83;4.20;;;;;;;16.04;98.43;100449.75;5052290;28;20519;-49
2023/07/01 03:10:13;;;;;;;9.07;3.88;;;;;;;15.97;99.56;100442.81;5053142;28;20087;-49
2023/07/01 03:12:38;;;;;;;11.18;4.07;;;;;;;15.86;100.00;100432.41;5052840;28;20033;-47
2023/07/01 03:15:04;;;;;;;9.88;4.30;;;;;;;15.79;100.00;100428.06;5052215;28;20028;-48
2023/07/01 03:17:29;;;;;;;9.38;4.38;;;;;;;15.68;100.00;100420.22;5052833;28;20025;-48
2023/07/01 03:19:54;;;;;;;9.80;4.57;;;;;;;15.58;100.00;100423.66;5052357;28;20070;-49
2023/07/01 03:22:20;;;;;;;12.30;4.70;;;;;;;15.50;100.00;100420.19;5052048;28;20511;-49
2023/07/01 03:24:45;;;;;;;13.38;5.43;;;;;;;15.44;100.00;100421.91;5052616;28;20396;-49
2023/07/01 03:27:10;;;;;;;8.30;4.35;;;;;;;15.41;100.00;100416.69;5052832;28;20116;-49
2023/07/01 03:29:36;;;;;;;10.95;4.47;;;;;;;15.40;100.00;100415.00;5051626;28;20021;-50
2023/07/01 03:32:03;;;;;;;13.90;5.22;;;;;;;15.43;100.00;100420.19;5052996;28;20117;-47
2023/07/01 03:34:29;;;;;;;10.07;4.90;;;;;;;15.46;100.00;100414.97;5052412;28;20423;-48
2023/07/01 03:36:54;;;;;;;12.90;5.05;;;;;;;15.49;100.00;100408.94;5052036;28;20025;-48
2023/07/01 03:39:19;;;;;;;12.00;5.10;;;;;;;15.50;100.00;100410.66;5052828;28;20484;-47
2023/07/01 03:41:45;;;;;;;11.35;5.57;;;;;;;15.45;100.00;100408.06;5052140;28;20025;-45
2023/07/01 03:44:11;;;;;;;13.23;5.60;;;;;;;15.40;100.00;100406.31;5051761;28;20086;-49
2023/07/01 03:46:36;;;;;;;11.50;5.60;;;;;;;15.37;100.00;100401.13;5052485;28;20060;-49
2023/07/01 03:49:01;;;;;;;12.65;6.32;;;;;;;15.33;100.00;100402.84;5052870;28;20025;-48
2023/07/01 03:51:29;;;;;;;11.95;5.95;;;;;;;15.26;100.00;100398.47;5051913;28;20035;-45
2023/07/01 03:53:55;;;;;;;12.10;6.63;;;;;;;15.18;100.00;100397.59;5052666;28;20029;-49
2023/07/01 03:56:21;;;;;;;13.57;6.70;;;;;;;15.10;100.00;100392.38;5052424;28;20025;-47
2023/07/01 03:58:46;;;;;;;17.77;7.68;;;;;;;15.07;100.00;100401.03;5051334;28;20056;-47
2023/07/01 04:01:16;;;;;;;13.95;7.85;;;;;;;15.01;100.00;100395.78;5052433;28;20052;-49
2023/07/01 04:03:41;;;;;;;13.43;8.10;;;;;;;14.94;100.00;100381.94;5051298;28;20358;-47
2023/07/01 04:06:07;;;;;;;15.07;8.23;;;;;;;14.90;100.00;100387.09;5052575;28;20047;-47
2023/07/01 04:08:32;;;;;;;15.25;8.75;;;;;;;14.85;100.00;100386.22;5052152;28;20060;-46
2023/07/01 04:10:58;;;;;;;19.50;9.18;;;;;;;14.84;100.00;100381.91;5051682;28;20384;-47
2023/07/01 04:13:23;;;;;;;15.55;10.00;;;;;;;14.81;100.00;100383.59;5052296;28;20481;-47
2023/07/01 04:15:49;;;;;;;22.85;9.65;;;;;;;14.81;100.00;100382.75;5052452;28;20028;-49
2023/07/01 04:18:14;;;;;;;18.00;10.18;;;;;;;14.76;100.00;100374.09;5051791;28;20047;-48
2023/07/01 04:20:40;;;;;;;15.93;10.38;;;;;;;14.72;100.00;100372.31;5052079;28;20442;-48
2023/07/01 04:23:05;;;;;;;20.65;9.95;;;;;;;14.68;100.00;100367.97;5052177;28;20513;-49
2023/07/01 04:25:31;;;;;;;18.95;10.40;;;;;;;14.63;100.00;100367.94;5051280;28;20389;-48
2023/07/01 04:27:56;;;;;;;17.02;10.63;;;;;;;14.62;100.00;100353.22;5052829;28;20457;-48
2023/07/01 04:30:23;;;;;;;21.58;10.68;;;;;;;14.62;100.00;100355.81;5052804;28;20486;-45
2023/07/01 04:32:49;;;;;;;16.90;10.10;;;;;;;14.59;100.00;100354.06;5055228;28;20029;-49
2023/07/01 04:35:15;;;;;;;26.08;10.32;;;;;;;14.59;100.00;100356.66;5056132;28;20017;-47
2023/07/01 04:37:40;;;;;;;14.95;9.88;;;;;;;14.57;100.00;100353.19;5055691;28;20036;-48
2023/07/01 04:40:06;;;;;;;16.48;9.38;;;;;;;14.56;100.00;100356.63;5055066;28;20064;-45
2023/07/01 04:42:33;;;;;;;15.90;8.70;;;;;;;14.56;100.00;100356.63;5055497;28;20052;-44
2023/07/01 04:44:58;;;;;;;12.68;9.02;;;;;;;14.58;100.00;100349.75;5056068;28;20031;-45
2023/07/01 04:47:24;;;;;;;13.07;8.07;;;;;;;14.56;100.00;100348.84;5054610;28;20029;-47
2023/07/01 04:49:52;;;;;;;10.60;7.80;;;;;;;14.54;100.00;100340.22;5055842;28;20449;-43
2023/07/01 04:52:21;;;;;;;10.38;6.88;;;;;;;14.55;100.00;100346.25;5055742;28;20025;-43
2023/07/01 04:54:47;;;;;;;9.50;7.10;;;;;;;14.57;100.00;100340.22;5054545;28;20536;-47
2023/07/01 04:57:13;;;;;;;10.43;7.18;;;;;;;14.57;100.00;100340.22;5055771;28;20028;-47
2023/07/01 04:59:38;;;;;;;11.50;6.78;;;;;;;14.57;100.00;100340.22;5055196;28;20034;-46
2023/07/01 05:02:06;;;;;;;8.15;5.80;;;;;;;14.58;100.00;100333.34;5055031;28;20484;-49
2023/07/01 05:04:32;;;;;;;9.52;5.97;;;;;;;14.59;100.00;100329.84;5055096;28;20357;-44
2023/07/01 05:06:57;;;;;;;8.07;6.05;;;;;;;14.59;100.00;100333.34;5054736;28;20131;-46
2023/07/01 05:09:22;;;;;;;7.80;6.10;;;;;;;14.60;100.00;100323.81;5054993;28;20025;-45
2023/07/01 05:11:48;;;;;;;8.85;5.55;;;;;;;14.62;100.00;100324.69;5055195;28;20481;-44
2023/07/01 05:14:13;;;;;;;8.15;5.57;;;;;;;14.64;100.00;100323.00;5054547;28;20136;-49
2023/07/01 05:16:39;;;;;;;7.53;5.20;;;;;;;14.67;100.00;100327.31;5055073;28;20037;-43
2023/07/01 05:19:04;;;;;;;6.28;5.03;;;;;;;14.69;100.00;100334.25;5055453;28;20040;-44
2023/07/01 05:21:30;;;;;;;7.18;5.45;;;;;;;14.68;100.00;100324.75;5054165;28;20040;-47
2023/07/01 05:23:55;;;;;;;8.80;5.50;;;;;;;14.68;100.00;100324.75;5055251;28;20024;-48
2023/07/01 05:26:20;;;;;;;7.28;5.15;;;;;;;14.71;100.00;100329.94;5055032;28;20397;-43
2023/07/01 05:28:45;;;;;;;8.65;4.90;;;;;;;14.70;100.00;100333.41;5054200;28;20487;-48
2023/07/01 05:31:11;;;;;;;7.93;4.63;;;;;;;14.73;100.00;100324.75;5054964;28;20457;-49
2023/07/01 05:33:36;;;;;;;8.50;5.10;;;;;;;14.70;100.00;100323.03;5054624;28;20057;-49
2023/07/01 05:36:01;;;;;;;9.32;5.05;;;;;;;14.72;100.00;100323.03;5054025;28;20060;-45
2023/07/01 05:38:27;;;;;;;8.80;4.90;;;;;;;14.72;100.00;100328.22;5054290;28;20029;-49
2023/07/01 05:40:52;;;;;;;6.38;4.72;;;;;;;14.70;100.00;100317.84;5055019;28;20024;-43
2023/07/01 05:43:18;;;;;;;10.07;4.45;;;;;;;14.73;100.00;100319.56;5053394;28;20035;-49
2023/07/01 05:45:43;;;;;;;6.47;4.30;;;;;;;14.77;100.00;100327.41;5054526;28;20021;-48
2023/07/01 05:48:08;;;;;;;6.82;4.32;;;;;;;14.78;100.00;100320.47;5054833;28;20124;-49
2023/07/01 05:50:34;;;;;;;7.82;4.85;;;;;;;14.77;100.00;100329.09;5053502;28;20369;-47
2023/07/01 05:52:59;;;;;;;8.18;4.40;;;;;;;14.77;100.00;100323.91;5054507;28;20354;-48
2023/07/01 05:55:25;;;;;;;7.47;4.85;;;;;;;14.77;100.00;100314.41;5054117;28;20029;-49
2023/07/01 05:57:50;;;;;;;7.18;4.50;;;;;;;14.78;100.00;100310.97;5053810;28;20416;-47
2023/07/01 06:00:16;;;;;;;7.32;4.57;;;;;;;14.83;100.00;100316.16;5054472;28;20083;-46
2023/07/01 06:02:41;;;;;;;8.27;4.93;;;;;;;14.83;100.00;100316.16;5054058;28;20068;-49
2023/07/01 06:05:07;;;;;;;8.40;4.38;;;;;;;14.81;100.00;100316.16;5053553;28;20378;-48
2023/07/01 06:07:33;;;;;;;10.18;5.30;;;;;;;14.85;100.00;100310.97;5053873;28;20028;-45
2023/07/01 06:09:58;;;;;;;6.55;5.03;;;;;;;14.86;100.00;100312.72;5054423;28;20111;-49
2023/07/01 06:12:23;;;;;;;8.55;4.63;;;;;;;14.88;100.00;100311.00;5053291;28;20035;-44
2023/07/01 06:14:49;;;;;;;6.38;4.75;;;;;;;14.89;100.00;100310.16;5054279;28;20027;-48
2023/07/01 06:17:14;;;;;;;5.40;4.15;;;;;;;14.91;100.00;100300.63;5053267;28;20082;-47
2023/07/01 06:19:42;;;;;;;6.55;4.57;;;;;;;14.95;100.00;100304.94;5053706;28;20029;-47
2023/07/01 06:22:07;;;;;;;5.80;4.15;;;;;;;14.98;100.00;100308.44;5053771;28;20041;-44
2023/07/01 06:24:33;;;;;;;6.35;4.57;;;;;;;15.03;100.00;100299.78;5052908;28;20108;-48
2023/07/01 06:26:58;;;;;;;8.77;4.65;;;;;;;15.06;100.00;100299.81;5053951;28;20143;-45
2023/07/01 06:29:23;;;;;;;7.78;3.90;;;;;;;15.07;100.00;100299.81;5053702;28;20017;-45
2023/07/01 06:31:49;;;;;;;7.35;4.60;;;;;;;15.14;100.00;100298.97;5053086;28;20107;-43
2023/07/01 06:34:16;;;;;;;7.90;4.07;;;;;;;15.11;100.00;100304.13;5053735;28;20039;-45
2023/07/01 06:36:42;;;;;;;;;;;;;;;15.19;100.00;100300.69;5053857;28;20032;-45
2023/07/01 06:39:07;;;;;;;6.18;4.32;;;;;;;15.20;100.00;100298.09;5052732;28;19913;-47
2023/07/01 06:41:33;;;;;;;6.95;4.10;;;;;;;15.22;100.00;100300.69;5053164;28;20025;-47
2023/07/01 06:43:59;;;;;;;5.15;4.03;;;;;;;15.22;100.00;100305.88;5053702;28;20056;-45
2023/07/01 06:46:25;;;;;;;5.15;3.67;;;;;;;15.21;100.00;100293.75;5052521;28;20100;-49
2023/07/01 06:48:50;;;;;;;5.32;3.63;;;;;;;15.23;100.00;100292.03;5053497;28;20031;-46
2023/07/01 06:51:16;;;;;;;7.18;3.63;;;;;;;15.26;100.00;100292.03;5053406;28;20021;-48
2023/07/01 06:53:42;;;;;;;4.32;3.22;;;;;;;15.27;100.00;100288.59;5051603;28;20102;-43
2023/07/01 06:56:07;;;;;;;6.13;3.70;;;;;;;15.29;100.00;100294.66;5053322;28;20032;-45
2023/07/01 06:58:33;;;;;;;5.43;3.72;;;;;;;15.34;100.00;100284.25;5052882;28;20528;-47
2023/07/01 07:00:58;;;;;;;3.67;3.03;;;;;;;15.31;100.00;100285.13;5052671;28;20025;-48
2023/07/01 07:03:23;;;;;;;4.70;3.20;;;;;;;15.33;100.00;100280.81;5053124;28;20028;-49
2023/07/01 07:05:52;;;;;;;4.80;3.40;;;;;;;15.31;100.00;100296.38;5053206;28;20083;-45
2023/07/01 07:08:17;;;;;;;4.82;3.28;;;;;;;15.33;100.00;100283.41;5052397;28;20029;-44
2023/07/01 07:10:42;;;;;;;4.80;3.38;;;;;;;15.37;100.00;100292.91;5053156;28;20078;-47
2023/07/01 07:13:09;;;;;;;4.30;3.25;;;;;;;15.38;100.00;100292.06;5053117;28;20029;-48
2023/07/01 07:15:38;;;;;;;9.23;3.35;;;;;;;15.39;100.00;100287.72;5052031;28;20036;-48
2023/07/01 07:18:06;;;;;;;4.35;3.15;;;;;;;15.45;100.00;100293.81;5052966;28;20033;-49
2023/07/01 07:20:31;;;;;;;6.25;3.58;;;;;;;15.41;100.00;100292.06;5051857;28;20062;-46
2023/07/01 07:22:57;;;;;;;5.40;3.63;;;;;;;15.47;100.00;100292.06;5052856;28;20142;-48
2023/07/01 07:25:22;;;;;;;4.93;3.50;;;;;;;15.46;100.00;100273.88;5052824;28;20025;-43
2023/07/01 07:27:47;;;;;;;24.75;4.95;;;;;;;15.50;100.00;100279.97;5052304;28;20021;-49
2023/07/01 07:30:13;;;;;;;6.00;3.65;;;;;;;15.49;100.00;100284.28;5052933;28;20023;-48
2023/07/01 07:32:39;;;;;;;5.28;3.60;;;;;;;15.53;100.00;100285.13;5052691;28;20053;-48
2023/07/01 07:35:05;;;;;;;6.30;4.03;;;;;;;15.57;100.00;100277.38;5064107;28;20083;-48
2023/07/01 07:37:30;;;;;;;6.82;3.90;;;;;;;15.61;100.00;100286.03;5071565;28;20024;-48
2023/07/01 07:39:58;;;;;;;7.97;3.97;;;;;;;15.63;100.00;100281.69;5072654;28;20098;-48
2023/07/01 07:42:24;;;;;;;5.80;3.40;;;;;;;15.67;100.00;100278.19;5071830;28;20024;-47
2023/07/01 07:44:49;;;;;;;6.30;3.97;;;;;;;15.75;100.00;100280.78;5072822;28;20070;-48
2023/07/01 07:47:14;;;;;;;6.13;3.83;;;;;;;15.70;100.00;100274.75;5072854;28;20029;-47
2023/07/01 07:49:40;;;;;;;5.53;3.50;;;;;;;15.72;100.00;100276.47;5071595;28;20015;-47
2023/07/01 07:52:05;;;;;;;5.88;3.95;;;;;;;15.75;100.00;100286.88;5072785;28;20029;-44
2023/07/01 07:54:31;;;;;;;7.65;4.28;;;;;;;15.76;100.00;100283.41;5072206;28;20377;-49
2023/07/01 07:56:59;;;;;;;5.70;3.70;;;;;;;15.79;100.00;100279.94;5071971;28;20044;-42
2023/07/01 07:59:27;;;;;;;;;;;;;;;15.85;100.00;100281.69;5072759;28;20025;-47
2023/07/01 08:01:57;;;;;;;7.15;4.45;;;;;;;15.80;100.00;100279.06;5072685;28;20364;-47
2023/07/01 08:04:24;;;;;;;7.43;4.40;;;;;;;15.83;100.00;100273.03;5071493;28;20032;-45
2023/07/01 08:06:49;;;;;;;6.78;4.70;;;;;;;15.80;100.00;100261.75;5075832;28;20029;-45
2023/07/01 08:09:14;;;;;;;7.10;4.78;;;;;;;15.81;100.00;100273.03;5076719;28;20025;-48
2023/07/01 08:11:40;;;;;;;6.57;4.13;;;;;;;15.84;100.00;100274.75;5075681;28;20016;-47
2023/07/01 08:14:05;;;;;;;5.90;4.65;;;;;;;15.83;100.00;100265.22;5076663;28;20423;-43
2023/07/01 08:16:32;;;;;;;5.15;4.25;;;;;;;15.84;100.00;100269.56;5076155;28;20385;-50
2023/07/01 08:18:57;;;;;;;6.43;4.63;;;;;;;15.91;100.00;100266.09;5075553;28;20059;-45
2023/07/01 08:21:23;;;;;;;6.13;4.00;;;;;;;15.99;100.00;100266.94;5075913;28;20480;-47
2023/07/01 08:23:48;;;;;;;6.82;4.15;;;;;;;15.99;100.00;100264.34;5075650;28;20036;-48
2023/07/01 08:26:13;;;;;;;6.15;4.18;;;;;;;16.03;100.00;100270.41;5076320;28;20066;-47
2023/07/01 08:28:39;;;;;;;5.85;4.10;;;;;;;16.09;100.00;100265.19;5075880;28;20070;-48
2023/07/01 08:31:04;;;;;;;4.70;3.88;;;;;;;16.16;100.00;100256.50;5075423;28;20020;-44
2023/07/01 08:33:30;;;;;;;5.72;3.95;;;;;;;16.29;100.00;100259.94;5075620;28;20020;-45
2023/07/01 08:35:57;;;;;;;4.85;3.70;;;;;;;16.29;100.00;100265.13;5075851;28;20078;-47
2023/07/01 08:38:23;;;;;;;5.77;3.73;;;;;;;16.33;100.00;100253.84;5074900;28;20063;-42
2023/07/01 08:40:52;;;;;;;4.03;3.50;;;;;;;16.40;100.00;100255.56;5075893;28;20059;-44
2023/07/01 08:43:20;;;;;;;3.83;3.00;;;;;;;16.43;100.00;100265.94;5075843;28;20024;-47
2023/07/01 08:45:49;;;;;;;3.65;3.00;;;;;;;16.41;100.00;100256.41;5074817;28;20028;-42
2023/07/01 08:48:16;;;;;;;4.85;3.25;;;;;;;16.40;100.00;100258.16;5075480;28;20031;-45
2023/07/01 08:51:25;;;;;;;3.38;2.90;;;;;;;16.39;100.00;100259.03;5075397;28;20415;-47
2023/07/01 08:53:51;;;;;;;3.78;3.38;;;;;;;16.41;100.00;100261.59;5060325;28;20100;-42
2023/07/01 08:56:20;;;;;;;4.70;3.37;;;;;;;16.41;100.00;100257.28;5046571;28;20020;-43
2023/07/01 08:58:49;;;;;;;4.40;3.60;;;;;;;16.50;100.00;100253.78;5041150;28;20120;-46
2023/07/01 09:01:16;;;;;;;3.78;3.20;;;;;;;16.52;100.00;100253.78;5055347;28;20112;-47
2023/07/01 09:03:41;;;;;;;3.93;3.10;;;;;;;16.48;100.00;100257.28;5040887;28;20026;-46
2023/07/01 09:06:07;;;;;;;4.20;3.17;;;;;;;16.50;100.00;100250.31;5057907;28;20033;-46
2023/07/01 09:08:39;;;;;;;5.20;3.10;;;;;;;16.55;100.00;100251.16;5046210;28;20070;-44
2023/07/01 09:11:05;;;;;;;3.80;3.00;;;;;;;16.57;100.00;100247.69;5069264;28;20478;-47
2023/07/01 09:13:31;;;;;;;4.35;3.08;;;;;;;16.67;100.00;100248.50;5057375;28;20060;-45
2023/07/01 09:15:56;;;;;;;4.43;2.60;;;;;;;16.67;100.00;100247.63;5068350;28;20026;-43
2023/07/01 09:18:28;;;;;;;3.13;2.55;;;;;;;16.69;100.00;100257.16;5051526;28;20396;-47
2023/07/01 09:20:54;;;;;;;4.13;2.40;;;;;;;16.63;100.00;100257.22;5055020;28;20032;-47
2023/07/01 09:23:31;;;;;;;3.92;3.03;;;;;;;16.69;100.00;100251.09;5071030;28;20052;-45
2023/07/01 09:26:08;;;;;;;4.03;2.63;;;;;;;16.72;100.00;100246.75;5039509;28;20108;-46
2023/07/01 09:28:34;;;;;;;4.57;2.97;;;;;;;16.79;100.00;100243.22;5053862;28;20710;-47
2023/07/01 09:31:04;;;;;;;3.60;3.15;;;;;;;16.86;100.00;100248.41;5060876;28;20052;-44
2023/07/01 09:33:30;;;;;;;3.28;2.67;;;;;;;16.91;100.00;100241.47;5070731;28;20039;-44
2023/07/01 09:36:01;;;;;;;4.20;2.90;;;;;;;16.97;100.00;100240.56;5055087;28;20099;-45
2023/07/01 09:38:29;;;;;;;4.13;2.72;;;;;;;16.88;100.00;100238.84;5056321;28;20461;-46
2023/07/01 09:40:55;;;;;;;5.13;3.17;;;;;;;16.86;100.00;100241.47;5067724;28;20369;-47
2023/07/01 09:43:31;;;;;;;4.20;3.28;;;;;;;16.81;100.00;100240.63;5057201;28;20427;-46
2023/07/01 09:45:57;;;;;;;3.75;2.80;;;;;;;16.79;100.00;100231.97;5069496;28;20087;-44
2023/07/01 09:48:23;;;;;;;7.10;3.50;;;;;;;16.79;100.00;100238.00;5056164;28;20872;-45
2023/07/01 09:50:51;;;;;;;4.50;3.20;;;;;;;16.76;100.00;100232.84;5058471;28;20032;-42
2023/07/01 09:53:24;;;;;;;4.63;3.20;;;;;;;16.78;100.00;100241.50;5053874;28;20076;-43
2023/07/01 09:55:50;;;;;;;3.60;2.85;;;;;;;16.76;100.00;100238.03;5040489;28;20380;-44
2023/07/01 09:58:16;;;;;;;4.00;3.33;;;;;;;16.86;100.00;100232.78;5052954;28;20372;-46
2023/07/01 10:00:42;;;;;;;3.25;2.90;;;;;;;16.86;100.00;100236.25;5041434;28;20136;-48
2023/07/01 10:03:08;;;;;;;5.05;3.47;;;;;;;16.85;100.00;100233.66;5033661;28;20049;-46
2023/07/01 10:05:34;;;;;;;3.90;3.22;;;;;;;16.90;100.00;100231.88;5033204;28;20060;-44
2023/07/01 10:07:59;;;;;;;4.50;3.22;;;;;;;16.87;100.00;100234.50;5048594;28;20026;-43
2023/07/01 10:10:25;;;;;;;4.63;3.42;;;;;;;16.92;100.00;100233.63;5049187;28;20029;-43
2023/07/01 10:12:52;;;;;;;4.40;3.30;;;;;;;16.96;100.00;100224.06;5041594;28;20112;-42
2023/07/01 10:15:23;;;;;;;5.87;3.40;;;;;;;16.94;100.00;100231.03;5051113;28;20029;-42
2023/07/01 10:17:50;;;;;;;4.90;3.20;;;;;;;16.97;100.00;100223.19;5063928;28;20099;-42
2023/07/01 10:20:30;;;;;;;5.85;3.70;;;;;;;17.04;100.00;100224.00;5059036;28;20024;-43
2023/07/01 10:22:59;;;;;;;5.80;3.20;;;;;;;17.11;100.00;100231.78;5043247;28;20389;-47
2023/07/01 10:25:29;;;;;;;7.03;3.50;;;;;;;17.13;100.00;100220.50;5052621;28;20039;-44
2023/07/01 10:27:59;;;;;;;4.53;3.38;;;;;;;17.27;100.00;100216.03;5048618;28;20033;-45
2023/07/01 10:30:44;;;;;;;6.90;4.15;;;;;;;17.40;100.00;100217.69;5060297;28;20058;-46
2023/07/01 10:33:30;;;;;;;4.97;3.05;;;;;;;17.52;100.00;100218.41;5043415;28;20373;-42
2023/07/01 10:36:04;;;;;;;4.38;2.90;;;;;;;17.53;100.00;100214.94;5052574;28;20029;-45
2023/07/01 10:38:32;;;;;;;4.68;3.05;;;;;;;17.49;100.00;100216.69;5052507;28;20032;-44
2023/07/01 10:40:58;;;;;;;4.85;2.85;;;;;;;17.51;100.00;100214.09;5052612;28;20056;-45
2023/07/01 10:43:33;;;;;;;4.65;2.97;;;;;;;17.55;100.00;100219.25;5050462;28;20029;-42
2023/07/01 10:46:04;;;;;;;3.70;3.13;;;;;;;17.58;100.00;100227.06;5046470;28;20030;-44
2023/07/01 10:48:30;;;;;;;5.15;3.38;;;;;;;17.55;100.00;100213.19;5033689;28;20021;-47
2023/07/01 10:51:05;;;;;;;5.95;3.65;;;;;;;17.73;100.00;100215.63;5049278;28;20029;-43
2023/07/01 10:53:51;;;;;;;4.78;3.50;;;;;;;17.78;100.00;100219.03;5051583;28;20059;-43
2023/07/01 10:56:17;;;;;;;5.88;3.78;;;;;;;17.88;100.00;100218.94;5053202;28;20040;-45
2023/07/01 10:58:43;;;;;;;5.85;4.50;;;;;;;17.96;100.00;100219.75;5052142;28;20017;-47
2023/07/01 11:01:40;;;;;;;5.40;4.57;;;;;;;18.10;100.00;100211.75;5049252;28;20029;-47
2023/07/01 11:04:05;;;;;;;7.38;5.30;;;;;;;18.15;100.00;100215.19;5068192;28;20100;-44
2023/07/01 11:06:44;;;;;;;7.82;6.15;;;;;;;18.18;100.00;100209.94;5054474;28;20115;-47
2023/07/01 11:09:10;;;;;;;8.68;6.28;;;;;;;18.41;100.00;100217.47;5056753;28;20058;-45
2023/07/01 11:11:35;;;;;;;7.97;6.05;;;;;;;18.61;100.00;100213.75;5057328;28;20107;-47
2023/07/01 11:14:06;;;;;;;6.75;5.45;;;;;;;18.78;100.00;100215.25;5066669;28;20110;-47
2023/07/01 11:16:33;;;;;;;6.53;4.95;;;;;;;19.08;100.00;100212.22;5047256;28;20048;-46